Gilt Edge, Tennessee
Current Conditions -  °F | °C
As of 11:50 PM on Friday 19 Dec 2014 (Local Time) from KNQA Reporting Station
Overcast Overcast  
Wind Chill:   Ceiling: 11000
Heat Index:   Visibility: 10mi
Dew Point:   Wind: 0mph
Humidity: 87%   Direction: NA
Pressure: 30.24"   Gusts: NA
Location:  35.5541°N, 89.8241°W
Report Text: KNQA 200550Z 00000KT 10SM OVC110 03/01 A3024
Loading
Personal Weather Stations






























Interactive Weather Map New forecast layout! Learn more

10-Day Weather Forecast

Advertisements
Track Severe Weather on mobile